createdAt,value
2018-01-22T01:10:27.071Z,101139
2018-01-22T01:12:55.373Z,101142
2018-01-22T01:15:24.414Z,101128
2018-01-22T01:17:52.862Z,101141
2018-01-22T01:20:23.257Z,101126
2018-01-22T01:22:53.707Z,101124
2018-01-22T01:25:24.540Z,101119
2018-01-22T01:27:54.948Z,101120
2018-01-22T01:30:24.127Z,101116
2018-01-22T01:32:55.210Z,101110
2018-01-22T01:35:23.993Z,101099
2018-01-22T01:37:57.447Z,101100
2018-01-22T01:40:29.388Z,101105
2018-01-22T01:42:59.007Z,101090
2018-01-22T01:45:28.405Z,101101
2018-01-22T01:47:58.298Z,101101
2018-01-22T01:50:31.937Z,101090
2018-01-22T01:53:17.663Z,101095
2018-01-22T01:59:22.768Z,101088
2018-01-22T02:04:47.912Z,101080
2018-01-22T02:07:16.112Z,101078
2018-01-22T02:09:45.043Z,101079
2018-01-22T02:12:13.214Z,101079
2018-01-22T02:14:41.360Z,101070
2018-01-22T02:17:09.512Z,101064
2018-01-22T02:19:38.413Z,101066
2018-01-22T02:22:07.325Z,101070
2018-01-22T02:24:35.511Z,101065
2018-01-22T02:27:03.734Z,101069
2018-01-22T02:29:31.918Z,101065
2018-01-22T02:32:00.887Z,101053
2018-01-22T02:34:29.165Z,101049
2018-01-22T02:36:57.380Z,101045
2018-01-22T02:39:25.560Z,101032
2018-01-22T02:41:53.731Z,101033
2018-01-22T02:44:21.898Z,101017
2018-01-22T02:46:50.077Z,101018
2018-01-22T02:49:18.350Z,101007
2018-01-22T02:51:46.523Z,101003
2018-01-22T02:54:15.612Z,101005
2018-01-22T02:56:43.797Z,100999
2018-01-22T02:59:12.730Z,100985
2018-01-22T03:01:40.951Z,100981
2018-01-22T03:04:09.135Z,100977
2018-01-22T03:06:37.296Z,100981
2018-01-22T03:09:05.512Z,100969
2018-01-22T03:11:33.677Z,100958
2018-01-22T03:14:01.835Z,100957
2018-01-22T03:16:30.007Z,100950
2018-01-22T03:18:58.194Z,100949
2018-01-22T03:21:26.371Z,100940
2018-01-22T03:23:54.635Z,100940
2018-01-22T03:26:22.817Z,100934
2018-01-22T03:28:50.981Z,100924
2018-01-22T03:31:19.169Z,100924
2018-01-22T03:33:47.388Z,100924
2018-01-22T03:36:16.924Z,100930
2018-01-22T03:38:45.192Z,100927
2018-01-22T03:41:13.358Z,100930
2018-01-22T03:43:41.547Z,100943
2018-01-22T03:46:09.747Z,100947
2018-01-22T03:48:37.897Z,100937
2018-01-22T03:51:06.065Z,100929
2018-01-22T03:53:34.274Z,100920
2018-01-22T03:56:02.456Z,100902
2018-01-22T03:58:30.637Z,100904
2018-01-22T04:00:59.592Z,100894
2018-01-22T04:03:27.893Z,100901
2018-01-22T04:05:56.054Z,100898
2018-01-22T04:08:24.255Z,100895
2018-01-22T04:10:53.358Z,100901
2018-01-22T04:13:21.552Z,100908
2018-01-22T04:15:51.434Z,100913
2018-01-22T04:18:20.405Z,100907
2018-01-22T04:20:48.626Z,100907
2018-01-22T04:23:16.821Z,100902
2018-01-22T04:25:45.018Z,100898
2018-01-22T04:28:13.229Z,100898
2018-01-22T04:30:42.186Z,100893
2018-01-22T04:33:10.435Z,100888
2018-01-22T04:35:38.656Z,100885
2018-01-22T04:38:07.589Z,100870
2018-01-22T04:40:35.807Z,100867
2018-01-22T04:43:05.107Z,100864
2018-01-22T04:45:33.270Z,100868
2018-01-22T04:48:02.520Z,100866
2018-01-22T04:50:30.719Z,100874
2018-01-22T04:52:58.870Z,100879
2018-01-22T04:55:27.071Z,100890
2018-01-22T04:57:55.221Z,100893
2018-01-22T05:00:23.380Z,100875
2018-01-22T05:02:51.595Z,100855
2018-01-22T05:05:19.853Z,100856
2018-01-22T05:07:48.094Z,100831
2018-01-22T05:10:16.279Z,100834
2018-01-22T05:12:44.454Z,100837
2018-01-22T05:15:12.632Z,100822
2018-01-22T05:17:40.874Z,100814
2018-01-22T05:20:09.044Z,100819
2018-01-22T05:22:37.218Z,100811
2018-01-22T05:25:05.520Z,100817
2018-01-22T05:27:33.787Z,100814
2018-01-22T05:30:01.965Z,100812
2018-01-22T05:32:30.156Z,100801
2018-01-22T05:34:58.344Z,100790
2018-01-22T05:37:27.275Z,100788
2018-01-22T05:39:56.400Z,100779
2018-01-22T05:42:24.566Z,100771
2018-01-22T05:44:52.823Z,100770
2018-01-22T05:47:21.755Z,100778
2018-01-22T05:49:49.952Z,100773
2018-01-22T05:52:18.124Z,100776
2018-01-22T05:54:46.323Z,100766
2018-01-22T05:57:14.547Z,100773
2018-01-22T05:59:42.703Z,100776
2018-01-22T06:02:10.882Z,100782
2018-01-22T06:04:39.057Z,100782
2018-01-22T06:07:07.219Z,100792
2018-01-22T06:09:35.515Z,100788
2018-01-22T06:12:03.691Z,100784
2018-01-22T06:14:31.851Z,100772
2018-01-22T06:17:00.028Z,100778
2018-01-22T06:19:28.351Z,100784
2018-01-22T06:21:56.539Z,100775
2018-01-22T06:24:24.707Z,100784
2018-01-22T06:26:52.870Z,100777
2018-01-22T06:29:21.079Z,100769
2018-01-22T06:31:49.299Z,100768
2018-01-22T06:34:17.584Z,100764
2018-01-22T06:36:45.861Z,100771
2018-01-22T06:39:14.038Z,100774
2018-01-22T06:41:42.348Z,100758
2018-01-22T06:44:11.264Z,100754
2018-01-22T06:46:39.476Z,100750
2018-01-22T06:49:07.673Z,100743
2018-01-22T06:51:36.615Z,100730
2018-01-22T06:54:04.788Z,100734
2018-01-22T06:56:33.101Z,100729
2018-01-22T06:59:01.356Z,100730
2018-01-22T07:01:29.502Z,100738
2018-01-22T07:03:57.860Z,100731
2018-01-22T07:06:26.065Z,100716
2018-01-22T07:08:54.304Z,100717
2018-01-22T07:11:23.247Z,100715
2018-01-22T07:13:51.500Z,100707
2018-01-22T07:16:19.699Z,100709
2018-01-22T07:18:47.938Z,100695
2018-01-22T07:21:16.160Z,100697
2018-01-22T07:23:45.124Z,100693
2018-01-22T07:26:13.285Z,100686
2018-01-22T07:28:41.455Z,100677
2018-01-22T07:31:09.673Z,100677
2018-01-22T07:33:37.843Z,100689
2018-01-22T07:36:06.053Z,100688
2018-01-22T07:38:34.290Z,100689
2018-01-22T07:41:02.491Z,100688
2018-01-22T07:43:31.425Z,100692
2018-01-22T07:45:59.607Z,100686
2018-01-22T07:48:27.827Z,100687
2018-01-22T07:50:56.012Z,100685
2018-01-22T07:53:24.336Z,100689
2018-01-22T07:55:52.603Z,100685
2018-01-22T07:58:20.796Z,100677
2018-01-22T08:00:49.983Z,100685
2018-01-22T08:03:18.230Z,100676
2018-01-22T08:05:46.424Z,100676
2018-01-22T08:08:14.876Z,100666
2018-01-22T08:10:43.135Z,100664
2018-01-22T08:13:12.291Z,100660
2018-01-22T08:15:40.501Z,100663
2018-01-22T08:18:08.691Z,100663
2018-01-22T08:20:37.007Z,100662
2018-01-22T08:23:06.145Z,100655
2018-01-22T08:25:35.366Z,100650
2018-01-22T08:28:03.744Z,100645
2018-01-22T08:30:32.005Z,100653
2018-01-22T08:33:00.217Z,100653
2018-01-22T08:35:28.455Z,100670
2018-01-22T08:37:56.762Z,100659
2018-01-22T08:40:25.432Z,100666
2018-01-22T08:42:53.668Z,100662
2018-01-22T08:45:22.701Z,100653
2018-01-22T08:47:51.561Z,100653
2018-01-22T08:50:20.961Z,100649
2018-01-22T08:52:49.196Z,100635
2018-01-22T08:55:18.803Z,100636
2018-01-22T08:58:06.416Z,100631
2018-01-22T09:00:35.510Z,100632
2018-01-22T09:03:03.779Z,100625
2018-01-22T09:05:32.015Z,100616
2018-01-22T09:08:11.221Z,100604
2018-01-22T09:10:42.038Z,100607
2018-01-22T09:13:13.793Z,100609
2018-01-22T09:18:36.053Z,100601
2018-01-22T09:21:05.766Z,100592
2018-01-22T09:26:33.630Z,100576
2018-01-22T09:38:46.587Z,100577
2018-01-22T09:41:17.943Z,100575
2018-01-22T09:44:03.334Z,100574
2018-01-22T09:46:32.027Z,100566
2018-01-22T09:52:00.148Z,100586
2018-01-22T10:32:15.628Z,100582
2018-01-22T10:34:44.081Z,100572
2018-01-22T10:37:13.836Z,100566
2018-01-22T10:44:28.768Z,100570
2018-01-22T10:46:58.123Z,100562
2018-01-22T10:49:28.472Z,100550
2018-01-22T10:54:38.084Z,100549
2018-01-22T10:57:06.690Z,100538
2018-01-22T10:59:34.994Z,100545
2018-01-22T11:02:15.912Z,100550
2018-01-22T11:04:44.226Z,100549
2018-01-22T11:07:13.395Z,100549
2018-01-22T11:09:41.831Z,100546
2018-01-22T11:12:11.429Z,100547
2018-01-22T11:14:40.890Z,100543
2018-01-22T11:17:09.205Z,100545
2018-01-22T11:19:45.511Z,100550
2018-01-22T11:22:20.604Z,100546
2018-01-22T11:24:49.079Z,100540
2018-01-22T11:27:17.404Z,100538
2018-01-22T11:29:46.595Z,100546
2018-01-22T11:32:15.095Z,100548
2018-01-22T11:34:43.889Z,100549
2018-01-22T11:37:13.164Z,100534
2018-01-22T11:39:41.443Z,100537
2018-01-22T11:42:09.715Z,100531
2018-01-22T11:44:38.001Z,100520
2018-01-22T11:47:06.394Z,100519
2018-01-22T11:49:35.074Z,100517
2018-01-22T11:52:03.308Z,100523
2018-01-22T11:54:51.720Z,100512
2018-01-22T11:57:21.090Z,100514
2018-01-22T12:00:12.096Z,100516
2018-01-22T12:02:41.908Z,100504
2018-01-22T12:05:11.331Z,100505
2018-01-22T12:07:40.477Z,100501
2018-01-22T12:10:09.567Z,100497
2018-01-22T12:12:37.743Z,100500
2018-01-22T12:15:06.092Z,100503
2018-01-22T12:17:34.552Z,100504
2018-01-22T12:20:03.572Z,100499
2018-01-22T12:22:32.614Z,100488
2018-01-22T12:25:00.853Z,100485
2018-01-22T12:27:29.250Z,100480
2018-01-22T12:29:57.444Z,100477
2018-01-22T12:32:25.748Z,100480
2018-01-22T12:34:54.790Z,100480
2018-01-22T12:37:23.008Z,100485
2018-01-22T12:39:51.277Z,100490
2018-01-22T12:42:20.649Z,100488
2018-01-22T12:47:58.691Z,100496
2018-01-22T12:50:26.910Z,100475
2018-01-22T12:52:55.088Z,100486
2018-01-22T12:55:23.243Z,100484
2018-01-22T12:57:51.407Z,100482
2018-01-22T13:00:19.571Z,100487
2018-01-22T13:02:47.767Z,100484
2018-01-22T13:05:16.769Z,100484
2018-01-22T13:07:44.938Z,100493
2018-01-22T13:10:13.139Z,100483
2018-01-22T13:12:42.058Z,100491
2018-01-22T13:15:10.254Z,100490
2018-01-22T13:17:38.522Z,100485
2018-01-22T13:20:06.669Z,100484
2018-01-22T13:22:34.979Z,100481
2018-01-22T13:25:03.261Z,100488
2018-01-22T13:27:31.452Z,100491
2018-01-22T13:29:59.611Z,100490
2018-01-22T13:32:27.824Z,100489
2018-01-22T13:34:56.055Z,100492
2018-01-22T13:37:24.225Z,100502
2018-01-22T13:39:52.442Z,100499
2018-01-22T13:42:20.642Z,100502
2018-01-22T13:44:48.821Z,100503
2018-01-22T13:47:17.079Z,100513
2018-01-22T13:49:45.284Z,100520
2018-01-22T13:52:13.457Z,100515
2018-01-22T13:54:41.664Z,100514
2018-01-22T13:57:09.935Z,100514
2018-01-22T13:59:38.079Z,100517
2018-01-22T14:02:06.371Z,100528
2018-01-22T14:04:34.585Z,100528
2018-01-22T14:07:03.490Z,100538
2018-01-22T14:09:31.897Z,100543
2018-01-22T14:12:00.241Z,100534
2018-01-22T14:14:28.385Z,100543
2018-01-22T14:16:56.572Z,100539
2018-01-22T14:19:25.609Z,100533
2018-01-22T14:21:53.936Z,100541
2018-01-22T14:24:22.856Z,100535
2018-01-22T14:26:50.998Z,100549
2018-01-22T14:29:19.299Z,100551
2018-01-22T14:31:47.518Z,100551
2018-01-22T14:34:15.670Z,100542
2018-01-22T14:36:43.806Z,100543
2018-01-22T14:39:11.970Z,100544
2018-01-22T14:41:40.922Z,100542
2018-01-22T14:44:09.254Z,100547
2018-01-22T14:46:37.547Z,100550
2018-01-22T14:49:05.737Z,100541
2018-01-22T14:51:34.673Z,100548
2018-01-22T14:54:03.593Z,100555
2018-01-22T14:56:31.826Z,100558
2018-01-22T14:58:59.986Z,100556
2018-01-22T15:01:28.233Z,100569
2018-01-22T15:03:56.419Z,100571
2018-01-22T15:06:25.340Z,100568
2018-01-22T15:08:53.524Z,100573
2018-01-22T15:11:22.466Z,100578
2018-01-22T15:13:50.705Z,100577
2018-01-22T15:16:18.895Z,100586
2018-01-22T15:18:47.050Z,100587
2018-01-22T15:21:15.206Z,100591
2018-01-22T15:23:44.178Z,100590
2018-01-22T15:26:12.447Z,100599
2018-01-22T15:28:40.678Z,100598
2018-01-22T15:31:08.843Z,100597
2018-01-22T15:33:37.082Z,100606
2018-01-22T15:36:06.036Z,100614
2018-01-22T15:38:34.357Z,100607
2018-01-22T15:41:03.271Z,100607
2018-01-22T15:43:31.414Z,100621
2018-01-22T15:46:00.387Z,100627
2018-01-22T15:48:29.350Z,100634
2018-01-22T15:50:57.474Z,100640
2018-01-22T15:53:26.367Z,100629
2018-01-22T15:55:55.310Z,100636
2018-01-22T15:58:23.467Z,100636
2018-01-22T16:00:51.658Z,100637
2018-01-22T16:03:19.856Z,100647
2018-01-22T16:05:48.241Z,100662
2018-01-22T16:08:16.507Z,100663
2018-01-22T16:10:44.731Z,100674
2018-01-22T16:13:12.896Z,100678
2018-01-22T16:15:41.077Z,100672
2018-01-22T16:18:09.252Z,100674
2018-01-22T16:20:37.420Z,100686
2018-01-22T16:23:05.621Z,100692
2018-01-22T16:25:33.797Z,100698
2018-01-22T16:28:02.720Z,100704
2018-01-22T16:30:31.644Z,100709
2018-01-22T16:32:59.807Z,100711
2018-01-22T16:35:28.755Z,100712
2018-01-22T16:37:56.933Z,100722
2018-01-22T16:40:25.128Z,100715
2018-01-22T16:42:54.158Z,100734
2018-01-22T16:45:22.327Z,100736
2018-01-22T16:47:56.095Z,100735
2018-01-22T16:50:25.062Z,100729
2018-01-22T16:52:53.250Z,100740
2018-01-22T16:55:21.404Z,100743
2018-01-22T16:57:49.585Z,100737
2018-01-22T17:00:17.742Z,100739
2018-01-22T17:02:45.948Z,100738
2018-01-22T17:05:14.116Z,100743
2018-01-22T17:07:42.435Z,100753
2018-01-22T17:10:10.606Z,100757
2018-01-22T17:12:38.819Z,100752
2018-01-22T17:15:07.816Z,100753
2018-01-22T17:17:35.988Z,100758
2018-01-22T17:20:04.368Z,100776
2018-01-22T17:22:32.598Z,100790
2018-01-22T17:25:00.867Z,100795
2018-01-22T17:27:29.103Z,100794
2018-01-22T17:29:57.287Z,100795
2018-01-22T17:32:26.208Z,100800
2018-01-22T17:34:54.511Z,100807
2018-01-22T17:37:22.746Z,100803
2018-01-22T17:39:51.672Z,100803
2018-01-22T17:42:19.855Z,100818
2018-01-22T17:44:48.028Z,100828
2018-01-22T17:47:16.232Z,100836
2018-01-22T17:49:45.275Z,100846
2018-01-22T17:52:13.457Z,100843
2018-01-22T17:54:41.715Z,100845
2018-01-22T17:57:10.118Z,100860
2018-01-22T17:59:38.300Z,100856
2018-01-22T18:02:07.737Z,100862
2018-01-22T18:04:35.908Z,100872
2018-01-22T18:07:04.887Z,100867
2018-01-22T18:09:33.088Z,100866
2018-01-22T18:12:01.999Z,100859
2018-01-22T18:14:30.226Z,100857
2018-01-22T18:16:58.405Z,100858
2018-01-22T18:19:32.657Z,100861
2018-01-22T18:22:00.819Z,100873
2018-01-22T18:24:29.053Z,100871
2018-01-22T18:26:57.256Z,100867
2018-01-22T18:29:26.175Z,100864
2018-01-22T18:31:54.454Z,100866
2018-01-22T18:34:22.618Z,100869
2018-01-22T18:36:50.771Z,100876
2018-01-22T18:39:19.810Z,100875
2018-01-22T18:41:48.044Z,100876
2018-01-22T18:44:16.266Z,100874
2018-01-22T18:46:44.468Z,100883
2018-01-22T18:49:12.674Z,100885
2018-01-22T18:51:40.849Z,100895
2018-01-22T18:54:09.030Z,100898
2018-01-22T18:56:37.196Z,100902
2018-01-22T18:59:05.486Z,100908
2018-01-22T19:01:33.692Z,100897
2018-01-22T19:04:01.850Z,100900
2018-01-22T19:06:30.251Z,100900
2018-01-22T19:08:58.403Z,100905
2018-01-22T19:11:26.601Z,100913
2018-01-22T19:13:54.749Z,100908
2018-01-22T19:16:22.959Z,100913
2018-01-22T19:18:51.907Z,100914
2018-01-22T19:21:21.190Z,100909
2018-01-22T19:23:50.298Z,100912
2018-01-22T19:26:18.481Z,100915
2018-01-22T19:28:46.758Z,100918
2018-01-22T19:31:14.936Z,100925
2018-01-22T19:33:43.122Z,100936
2018-01-22T19:36:11.613Z,100943
2018-01-22T19:38:40.210Z,100942
2018-01-22T19:41:08.612Z,100950
2018-01-22T19:43:36.828Z,100953
2018-01-22T19:46:05.031Z,100962
2018-01-22T19:48:33.984Z,100965
2018-01-22T19:51:02.306Z,100967
2018-01-22T19:53:31.363Z,100965
2018-01-22T19:56:00.408Z,100977
2018-01-22T19:58:29.019Z,100979
2018-01-22T20:00:57.235Z,100992
2018-01-22T20:03:25.386Z,101001
2018-01-22T20:05:53.586Z,100998
2018-01-22T20:08:22.548Z,100997
2018-01-22T20:10:51.218Z,101000
2018-01-22T20:13:19.507Z,101006
2018-01-22T20:15:47.672Z,101011
2018-01-22T20:18:15.852Z,101019
2018-01-22T20:20:44.026Z,101011
2018-01-22T20:23:12.486Z,101013
2018-01-22T20:25:40.732Z,101009
2018-01-22T20:28:09.074Z,101017
2018-01-22T20:30:39.314Z,101024
2018-01-22T20:33:07.519Z,101029
2018-01-22T20:35:35.955Z,101022
2018-01-22T20:38:05.101Z,101027
2018-01-22T20:40:33.564Z,101023
2018-01-22T20:43:01.860Z,101029
2018-01-22T20:45:30.122Z,101033
2018-01-22T20:47:58.333Z,101036
2018-01-22T20:50:27.307Z,101050
2018-01-22T20:52:56.274Z,101047
2018-01-22T20:55:24.748Z,101057
2018-01-22T20:57:53.261Z,101058
2018-01-22T21:00:21.753Z,101061
2018-01-22T21:02:50.145Z,101064
2018-01-22T21:05:18.528Z,101085
2018-01-22T21:07:47.496Z,101082
2018-01-22T21:10:15.678Z,101081
2018-01-22T21:12:43.857Z,101062
2018-01-22T21:15:12.024Z,101068
2018-01-22T21:17:40.330Z,101065
2018-01-22T21:20:09.885Z,101071
2018-01-22T21:22:38.102Z,101069
2018-01-22T21:25:07.068Z,101077
2018-01-22T21:27:35.237Z,101086
2018-01-22T21:30:03.501Z,101085
2018-01-22T21:32:31.680Z,101089
2018-01-22T21:35:00.119Z,101090
2018-01-22T21:37:29.224Z,101102
2018-01-22T21:39:57.429Z,101103
2018-01-22T21:42:25.645Z,101106
2018-01-22T21:44:53.918Z,101112
2018-01-22T21:47:22.855Z,101108
2018-01-22T21:49:51.071Z,101132
2018-01-22T21:52:20.937Z,101144
2018-01-22T21:54:49.245Z,101140
2018-01-22T21:57:17.414Z,101141
2018-01-22T21:59:45.592Z,101153
2018-01-22T22:02:13.752Z,101154
2018-01-22T22:04:41.958Z,101163
2018-01-22T22:07:11.953Z,101180
2018-01-22T22:09:40.742Z,101169
2018-01-22T22:12:08.938Z,101160
2018-01-22T22:14:37.097Z,101156
2018-01-22T22:17:06.068Z,101153
2018-01-22T22:19:34.224Z,101168
2018-01-22T22:22:02.487Z,101163
2018-01-22T22:24:30.737Z,101169
2018-01-22T22:26:59.023Z,101167
2018-01-22T22:29:27.259Z,101184
2018-01-22T22:31:55.490Z,101176
2018-01-22T22:34:23.635Z,101173
2018-01-22T22:36:51.893Z,101173
2018-01-22T22:39:20.825Z,101173
2018-01-22T22:41:49.074Z,101175
2018-01-22T22:44:17.386Z,101181
2018-01-22T22:46:45.574Z,101190
2018-01-22T22:49:13.737Z,101199
2018-01-22T22:51:41.934Z,101209
2018-01-22T22:54:11.111Z,101213
2018-01-22T22:56:40.247Z,101216
2018-01-22T22:59:09.382Z,101228
2018-01-22T23:01:37.587Z,101225
2018-01-22T23:04:05.785Z,101229
2018-01-22T23:06:34.717Z,101236
2018-01-22T23:09:02.872Z,101242
2018-01-22T23:11:31.072Z,101255
2018-01-22T23:13:59.405Z,101261
2018-01-22T23:16:28.371Z,101267
2018-01-22T23:18:56.627Z,101273
2018-01-22T23:21:24.783Z,101279
2018-01-22T23:23:53.024Z,101284
2018-01-22T23:26:21.252Z,101299
2018-01-22T23:28:49.439Z,101297
2018-01-22T23:31:17.618Z,101298
2018-01-22T23:33:45.860Z,101302
2018-01-22T23:36:14.077Z,101296
2018-01-22T23:38:42.995Z,101302
2018-01-22T23:41:11.238Z,101300
2018-01-22T23:43:40.250Z,101306
2018-01-22T23:46:09.166Z,101307
2018-01-22T23:48:37.400Z,101309
2018-01-22T23:51:06.343Z,101318
2018-01-22T23:53:34.611Z,101320
2018-01-22T23:56:02.822Z,101319
2018-01-22T23:58:30.995Z,101324
